createdAt,value
2019-02-28T00:00:10.912Z,41.20
2019-02-28T00:02:53.862Z,41.30
2019-02-28T00:05:23.025Z,41.40
2019-02-28T00:08:01.206Z,41.40
2019-02-28T00:10:42.789Z,41.40
2019-02-28T00:13:21.738Z,41.50
2019-02-28T00:15:51.601Z,41.50
2019-02-28T00:18:32.063Z,41.50
2019-02-28T00:21:05.777Z,41.50
2019-02-28T00:23:39.000Z,41.60
2019-02-28T00:26:12.370Z,41.60
2019-02-28T00:28:49.028Z,41.60
2019-02-28T00:31:22.304Z,41.60
2019-02-28T00:34:11.658Z,41.60
2019-02-28T00:36:38.780Z,41.70
2019-02-28T00:39:12.766Z,41.70
2019-02-28T00:41:47.198Z,41.70
2019-02-28T00:44:24.784Z,41.80
2019-02-28T00:46:59.537Z,41.90
2019-02-28T00:49:33.812Z,42.00
2019-02-28T00:52:10.167Z,42.20
2019-02-28T00:54:58.171Z,42.10
2019-02-28T00:57:31.671Z,42.10
2019-02-28T01:00:05.480Z,42.20
2019-02-28T01:02:52.032Z,42.30
2019-02-28T01:05:28.278Z,42.30
2019-02-28T01:08:10.529Z,42.30
2019-02-28T01:10:48.363Z,42.30
2019-02-28T01:13:28.196Z,42.30
2019-02-28T01:16:05.456Z,42.40
2019-02-28T01:18:41.985Z,42.40
2019-02-28T01:21:14.306Z,42.50
2019-02-28T01:23:56.696Z,42.50
2019-02-28T01:26:36.077Z,42.40
2019-02-28T01:29:06.915Z,42.40
2019-02-28T01:31:46.183Z,42.40
2019-02-28T01:34:29.148Z,42.30
2019-02-28T01:37:10.577Z,42.30
2019-02-28T01:39:44.153Z,42.20
2019-02-28T01:42:41.172Z,42.20
2019-02-28T01:45:12.081Z,42.10
2019-02-28T01:47:45.180Z,42.00
2019-02-28T01:50:16.248Z,41.90
2019-02-28T01:52:56.261Z,41.90
2019-02-28T01:55:29.380Z,41.90
2019-02-28T01:58:16.580Z,42.10
2019-02-28T02:00:48.523Z,42.00
2019-02-28T02:03:30.559Z,41.90
2019-02-28T02:06:05.443Z,41.90
2019-02-28T02:08:38.461Z,41.90
2019-02-28T02:11:11.157Z,42.00
2019-02-28T02:13:48.385Z,41.90
2019-02-28T02:16:27.638Z,41.80
2019-02-28T02:19:00.487Z,41.70
2019-02-28T02:21:31.530Z,41.50
2019-02-28T02:24:03.465Z,41.40
2019-02-28T02:26:34.055Z,41.30
2019-02-28T02:29:07.216Z,41.30
2019-02-28T02:31:40.365Z,41.30
2019-02-28T02:34:10.829Z,41.20
2019-02-28T02:36:41.314Z,41.00
2019-02-28T02:39:15.957Z,40.90
2019-02-28T02:41:47.465Z,40.80
2019-02-28T02:44:17.918Z,40.50
2019-02-28T02:46:52.166Z,40.40
2019-02-28T02:49:20.869Z,40.30
2019-02-28T02:51:51.275Z,40.20
2019-02-28T02:54:21.820Z,40.00
2019-02-28T02:56:52.741Z,39.80
2019-02-28T02:59:23.525Z,39.60
2019-02-28T03:01:57.309Z,39.50
2019-02-28T03:04:27.824Z,39.40
2019-02-28T03:06:58.600Z,39.20
2019-02-28T03:09:29.602Z,39.10
2019-02-28T03:12:02.121Z,39.10
2019-02-28T03:14:33.654Z,39.00
2019-02-28T03:17:09.709Z,38.90
2019-02-28T03:19:36.328Z,38.90
2019-02-28T03:22:06.721Z,39.00
2019-02-28T03:24:37.794Z,38.90
2019-02-28T03:27:08.200Z,39.00
2019-02-28T03:29:43.421Z,39.10
2019-02-28T03:32:12.064Z,39.10
2019-02-28T03:34:54.776Z,39.00
2019-02-28T03:37:14.942Z,39.00
2019-02-28T03:39:45.373Z,39.00
2019-02-28T03:42:17.139Z,38.90
2019-02-28T03:44:47.570Z,38.80
2019-02-28T03:47:22.689Z,38.70
2019-02-28T03:49:50.363Z,38.70
2019-02-28T03:52:20.978Z,38.70
2019-02-28T03:54:51.916Z,38.60
2019-02-28T03:57:27.994Z,38.70
2019-02-28T03:59:57.194Z,38.70
2019-02-28T04:02:27.699Z,38.70
2019-02-28T04:05:00.258Z,38.70
2019-02-28T04:07:30.929Z,38.50
2019-02-28T04:10:01.680Z,38.60
2019-02-28T04:12:35.201Z,38.50
2019-02-28T04:15:10.178Z,38.50
2019-02-28T04:17:39.697Z,38.40
2019-02-28T04:20:10.567Z,38.40
2019-02-28T04:22:41.035Z,38.40
2019-02-28T04:25:11.810Z,38.40
2019-02-28T04:27:42.605Z,38.40
2019-02-28T04:30:13.200Z,38.40
2019-02-28T04:32:43.909Z,38.40
2019-02-28T04:35:24.384Z,38.40
2019-02-28T04:37:50.016Z,38.40
2019-02-28T04:40:20.399Z,38.40
2019-02-28T04:42:54.186Z,38.40
2019-02-28T04:45:26.212Z,38.40
2019-02-28T04:47:57.301Z,38.50
2019-02-28T04:50:31.231Z,38.50
2019-02-28T04:53:00.383Z,38.50
2019-02-28T04:55:30.817Z,38.70
2019-02-28T04:58:01.271Z,38.70
2019-02-28T05:00:31.623Z,38.70
2019-02-28T05:03:02.036Z,38.70
2019-02-28T05:05:32.409Z,38.60
2019-02-28T05:08:05.795Z,38.70
2019-02-28T05:10:35.254Z,38.80
2019-02-28T05:13:05.636Z,38.80
2019-02-28T05:15:38.679Z,38.90
2019-02-28T05:18:08.177Z,38.90
2019-02-28T05:20:38.580Z,38.90
2019-02-28T05:23:09.031Z,39.50
2019-02-28T05:25:40.163Z,38.90
2019-02-28T05:28:10.539Z,39.00
2019-02-28T05:30:41.591Z,39.00
2019-02-28T05:33:12.063Z,39.00
2019-02-28T05:35:42.493Z,39.10
2019-02-28T05:38:13.277Z,39.20
2019-02-28T05:40:43.669Z,39.30
2019-02-28T05:43:14.099Z,39.40
2019-02-28T05:45:48.711Z,39.40
2019-02-28T05:48:16.850Z,39.70
2019-02-28T05:50:52.782Z,39.70
2019-02-28T05:53:22.127Z,39.80
2019-02-28T05:55:52.696Z,39.90
2019-02-28T05:58:23.789Z,40.10
2019-02-28T06:00:54.218Z,40.20
2019-02-28T06:03:24.871Z,40.20
2019-02-28T06:05:57.187Z,40.30
2019-02-28T06:08:38.697Z,40.50
2019-02-28T06:11:08.011Z,40.60
2019-02-28T06:13:38.941Z,40.70
2019-02-28T06:16:12.541Z,40.80
2019-02-28T06:19:04.555Z,40.80
2019-02-28T06:21:40.814Z,41.10
2019-02-28T06:24:16.012Z,41.10
2019-02-28T06:26:59.700Z,41.20
2019-02-28T06:29:40.247Z,41.30
2019-02-28T06:32:23.802Z,41.40
2019-02-28T06:34:53.778Z,41.50
2019-02-28T06:37:24.291Z,41.50
2019-02-28T06:39:58.612Z,41.60
2019-02-28T06:42:29.654Z,41.60
2019-02-28T06:45:02.524Z,41.90
2019-02-28T06:47:32.835Z,41.90
2019-02-28T06:50:05.522Z,41.90
2019-02-28T06:52:37.671Z,42.10
2019-02-28T06:55:12.605Z,42.10
2019-02-28T06:57:41.825Z,42.20
2019-02-28T07:00:21.738Z,42.70
2019-02-28T07:03:04.497Z,42.30
2019-02-28T07:05:36.211Z,42.40
2019-02-28T07:08:06.725Z,42.60
2019-02-28T07:10:37.228Z,42.60
2019-02-28T07:13:07.853Z,42.60
2019-02-28T07:15:40.341Z,42.70
2019-02-28T07:18:11.422Z,42.80
2019-02-28T07:20:47.203Z,42.80
2019-02-28T07:23:17.786Z,42.90
2019-02-28T07:25:48.295Z,43.00
2019-02-28T07:28:18.672Z,43.10
2019-02-28T07:30:50.288Z,43.20
2019-02-28T07:33:23.946Z,44.00
2019-02-28T07:35:57.936Z,43.50
2019-02-28T07:38:29.033Z,43.60
2019-02-28T07:41:00.961Z,43.60
2019-02-28T07:43:31.438Z,43.80
2019-02-28T07:46:04.441Z,43.90
2019-02-28T07:48:35.204Z,44.00
2019-02-28T07:51:05.691Z,44.10
2019-02-28T07:53:36.202Z,44.30
2019-02-28T07:56:07.781Z,43.80
2019-02-28T07:58:38.464Z,44.10
2019-02-28T08:01:12.531Z,44.20
2019-02-28T08:03:43.710Z,44.30
2019-02-28T08:06:15.412Z,44.80
2019-02-28T08:08:45.831Z,45.00
2019-02-28T08:11:20.895Z,45.10
2019-02-28T08:13:51.655Z,45.30
2019-02-28T08:16:22.065Z,45.30
2019-02-28T08:18:53.367Z,45.70
2019-02-28T08:21:24.795Z,45.70
2019-02-28T08:23:55.414Z,45.80
2019-02-28T08:26:27.782Z,45.90
2019-02-28T08:28:58.374Z,45.80
2019-02-28T08:31:31.979Z,45.80
2019-02-28T08:34:01.371Z,45.90
2019-02-28T08:36:32.765Z,45.90
2019-02-28T08:39:06.067Z,46.00
2019-02-28T08:41:37.912Z,45.90
2019-02-28T08:44:22.833Z,46.00
2019-02-28T08:46:51.577Z,46.10
2019-02-28T08:49:23.176Z,46.10
2019-02-28T08:52:02.486Z,46.00
2019-02-28T08:54:41.407Z,46.20
2019-02-28T08:57:12.996Z,46.30
2019-02-28T08:59:44.009Z,46.50
2019-02-28T09:02:17.963Z,46.60
2019-02-28T09:04:47.823Z,46.70
2019-02-28T09:07:21.396Z,46.70
2019-02-28T09:09:51.909Z,46.90
2019-02-28T09:12:26.024Z,46.90
2019-02-28T09:14:56.731Z,46.90
2019-02-28T09:17:31.798Z,47.10
2019-02-28T09:20:02.895Z,47.10
2019-02-28T09:22:33.739Z,47.10
2019-02-28T09:25:04.358Z,47.20
2019-02-28T09:27:39.025Z,47.30
2019-02-28T09:30:26.603Z,47.30
2019-02-28T09:32:59.466Z,47.30
2019-02-28T09:35:36.953Z,47.10
2019-02-28T09:38:13.382Z,47.20
2019-02-28T09:40:42.074Z,47.10
2019-02-28T09:43:12.984Z,47.10
2019-02-28T09:45:43.696Z,47.10
2019-02-28T09:48:14.634Z,47.10
2019-02-28T09:50:45.653Z,47.10
2019-02-28T09:53:18.443Z,47.00
2019-02-28T09:55:50.499Z,46.90
2019-02-28T09:58:26.163Z,46.90
2019-02-28T10:00:55.874Z,47.00
2019-02-28T10:03:26.793Z,47.00
2019-02-28T10:05:57.373Z,47.10
2019-02-28T10:08:28.070Z,47.00
2019-02-28T10:10:58.530Z,46.90
2019-02-28T10:13:30.918Z,46.70
2019-02-28T10:16:01.385Z,46.60
2019-02-28T10:18:35.551Z,46.50
2019-02-28T10:21:06.629Z,46.40
2019-02-28T10:23:38.025Z,46.30
2019-02-28T10:26:08.750Z,46.30
2019-02-28T10:28:39.402Z,46.30
2019-02-28T10:31:09.823Z,46.10
2019-02-28T10:33:41.411Z,46.10
2019-02-28T10:36:12.873Z,46.20
2019-02-28T10:38:44.241Z,46.20
2019-02-28T10:41:17.096Z,45.70
2019-02-28T10:43:52.098Z,46.20
2019-02-28T10:46:20.293Z,45.70
2019-02-28T10:48:51.194Z,46.10
2019-02-28T10:51:21.999Z,46.10
2019-02-28T10:53:52.575Z,46.00
2019-02-28T10:56:23.179Z,45.90
2019-02-28T10:58:55.023Z,45.90
2019-02-28T11:03:55.719Z,45.00
2019-02-28T11:06:30.345Z,45.80
2019-02-28T11:09:08.435Z,45.80
2019-02-28T11:11:39.034Z,45.80
2019-02-28T11:14:10.763Z,46.00
2019-02-28T11:16:41.682Z,46.00
2019-02-28T11:19:13.828Z,46.10
2019-02-28T11:21:46.930Z,46.10
2019-02-28T11:24:20.667Z,46.10
2019-02-28T11:26:55.565Z,46.00
2019-02-28T11:29:26.368Z,45.90
2019-02-28T11:31:59.065Z,45.80
2019-02-28T11:34:29.712Z,46.20
2019-02-28T11:37:01.208Z,45.50
2019-02-28T11:39:35.884Z,45.40
2019-02-28T11:42:18.013Z,45.30
2019-02-28T11:44:48.503Z,45.80
2019-02-28T11:47:19.724Z,45.00
2019-02-28T11:49:53.857Z,45.10
2019-02-28T11:52:24.434Z,45.10
2019-02-28T11:54:56.370Z,44.90
2019-02-28T11:57:26.865Z,44.90
2019-02-28T12:00:00.196Z,44.90
2019-02-28T12:02:29.484Z,44.80
2019-02-28T12:05:08.556Z,44.70
2019-02-28T12:07:40.066Z,44.60
2019-02-28T12:10:20.668Z,44.50
2019-02-28T12:12:52.355Z,44.30
2019-02-28T12:15:24.327Z,44.50
2019-02-28T12:17:55.941Z,44.70
2019-02-28T12:20:27.463Z,44.70
2019-02-28T12:23:00.371Z,44.70
2019-02-28T12:25:34.621Z,44.50
2019-02-28T12:28:06.721Z,44.20
2019-02-28T12:30:37.458Z,43.90
2019-02-28T12:33:07.828Z,43.80
2019-02-28T12:35:40.470Z,43.60
2019-02-28T12:38:10.407Z,43.80
2019-02-28T12:40:42.570Z,43.30
2019-02-28T12:43:16.327Z,43.90
2019-02-28T12:45:47.476Z,58.00
2019-02-28T12:48:18.262Z,57.50
2019-02-28T12:50:48.894Z,57.30
2019-02-28T12:55:52.866Z,56.60
2019-02-28T12:58:23.554Z,53.30
2019-02-28T13:00:56.445Z,56.10
2019-02-28T13:03:26.688Z,55.80
2019-02-28T13:05:57.649Z,55.90
2019-02-28T13:11:08.225Z,54.90
2019-02-28T13:16:09.548Z,44.90
2019-02-28T13:18:57.793Z,44.40
2019-02-28T13:21:31.209Z,44.40
2019-02-28T13:24:01.833Z,45.20
2019-02-28T13:26:33.793Z,45.70
2019-02-28T13:29:05.142Z,44.60
2019-02-28T13:31:35.760Z,44.60
2019-02-28T13:34:06.335Z,44.60
2019-02-28T13:36:36.739Z,44.60
2019-02-28T13:39:09.966Z,44.60
2019-02-28T13:41:41.958Z,44.70
2019-02-28T13:44:12.384Z,44.70
2019-02-28T13:46:44.273Z,44.70
2019-02-28T13:49:15.613Z,44.80
2019-02-28T13:51:46.333Z,44.70
2019-02-28T13:54:17.911Z,44.70
2019-02-28T13:56:50.008Z,49.70
2019-02-28T13:59:20.491Z,45.80
2019-02-28T14:01:55.403Z,44.80
2019-02-28T14:04:26.963Z,44.90
2019-02-28T14:06:56.805Z,44.90
2019-02-28T14:09:27.745Z,44.80
2019-02-28T14:12:00.410Z,45.00
2019-02-28T14:14:31.586Z,44.90
2019-02-28T14:17:02.063Z,45.00
2019-02-28T14:19:32.769Z,45.00
2019-02-28T14:22:03.638Z,45.10
2019-02-28T14:24:34.458Z,45.10
2019-02-28T14:27:05.366Z,45.20
2019-02-28T14:29:36.841Z,45.30
2019-02-28T14:32:08.219Z,45.30
2019-02-28T14:34:38.529Z,45.30
2019-02-28T14:37:08.938Z,45.40
2019-02-28T14:39:39.822Z,45.50
2019-02-28T14:42:11.651Z,45.50
2019-02-28T14:44:42.796Z,45.60
2019-02-28T14:47:13.196Z,45.50
2019-02-28T14:49:44.535Z,45.50
2019-02-28T14:52:17.479Z,45.40
2019-02-28T14:54:48.285Z,45.40
2019-02-28T14:57:20.947Z,45.50
2019-02-28T14:59:53.202Z,45.60
2019-02-28T15:02:28.821Z,45.60
2019-02-28T15:04:58.400Z,45.50
2019-02-28T15:07:31.994Z,45.50
2019-02-28T15:10:02.716Z,45.50
2019-02-28T15:12:35.788Z,45.60
2019-02-28T15:15:09.023Z,45.60
2019-02-28T15:17:41.905Z,45.50
2019-02-28T15:20:14.107Z,45.60
2019-02-28T15:22:46.115Z,45.60
2019-02-28T15:25:18.675Z,45.60
2019-02-28T15:27:50.557Z,45.60
2019-02-28T15:30:24.389Z,45.60
2019-02-28T15:33:01.522Z,45.60
2019-02-28T15:35:31.977Z,45.70
2019-02-28T15:38:05.853Z,45.70
2019-02-28T15:40:40.909Z,45.80
2019-02-28T15:43:23.423Z,45.90
2019-02-28T15:46:11.867Z,46.00
2019-02-28T15:48:41.976Z,46.10
2019-02-28T15:51:16.044Z,46.10
2019-02-28T15:53:46.889Z,46.10
2019-02-28T15:56:20.091Z,46.30
2019-02-28T15:58:50.671Z,46.30
2019-02-28T16:01:21.106Z,46.40
2019-02-28T16:03:52.553Z,46.50
2019-02-28T16:06:23.080Z,46.50
2019-02-28T16:08:54.246Z,46.60
2019-02-28T16:11:26.141Z,46.60
2019-02-28T16:13:57.476Z,46.70
2019-02-28T16:16:28.115Z,46.80
2019-02-28T16:18:58.825Z,47.00
2019-02-28T16:21:30.969Z,47.00
2019-02-28T16:24:02.051Z,47.00
2019-02-28T16:26:34.818Z,47.10
2019-02-28T16:29:05.491Z,47.00
2019-02-28T16:31:38.556Z,47.70
2019-02-28T16:34:09.228Z,47.10
2019-02-28T16:36:39.686Z,47.10
2019-02-28T16:39:10.106Z,47.10
2019-02-28T16:41:40.533Z,47.00
2019-02-28T16:44:11.380Z,47.10
2019-02-28T16:46:42.135Z,46.80
2019-02-28T16:49:12.581Z,46.90
2019-02-28T16:51:42.975Z,46.90
2019-02-28T16:54:15.518Z,46.90
2019-02-28T16:56:49.143Z,46.90
2019-02-28T16:59:28.450Z,46.80
2019-02-28T17:02:09.754Z,46.80
2019-02-28T17:04:41.979Z,46.80
2019-02-28T17:07:23.431Z,46.80
2019-02-28T17:09:57.442Z,46.80
2019-02-28T17:12:46.082Z,46.80
2019-02-28T17:15:25.143Z,46.80
2019-02-28T17:18:06.371Z,46.80
2019-02-28T17:20:41.884Z,46.90
2019-02-28T17:23:18.588Z,46.80
2019-02-28T17:25:49.214Z,46.90
2019-02-28T17:28:36.865Z,47.00
2019-02-28T17:31:35.587Z,47.00
2019-02-28T17:34:06.442Z,47.00
2019-02-28T17:36:39.256Z,47.10
2019-02-28T17:39:14.555Z,47.10
2019-02-28T17:41:43.600Z,47.20
2019-02-28T17:45:02.202Z,47.30
2019-02-28T17:48:51.669Z,47.40
2019-02-28T17:51:27.190Z,47.40
2019-02-28T17:54:40.062Z,47.20
2019-02-28T17:57:57.065Z,47.60
2019-02-28T18:01:25.402Z,47.60
2019-02-28T18:04:48.374Z,47.60
2019-02-28T18:08:37.798Z,47.60
2019-02-28T18:12:09.336Z,47.50
2019-02-28T18:14:55.948Z,47.50
2019-02-28T18:18:31.654Z,47.50
2019-02-28T18:22:23.512Z,47.70
2019-02-28T18:25:58.226Z,47.60
2019-02-28T18:29:31.033Z,47.60
2019-02-28T18:31:59.489Z,47.50
2019-02-28T18:34:38.744Z,47.60
2019-02-28T18:37:09.433Z,47.70
2019-02-28T18:39:39.938Z,47.80
2019-02-28T18:42:11.123Z,47.80
2019-02-28T18:44:44.222Z,47.80
2019-02-28T18:47:15.067Z,47.80
2019-02-28T18:49:45.442Z,47.80
2019-02-28T18:52:17.969Z,47.90
2019-02-28T18:54:48.515Z,47.90
2019-02-28T18:57:18.879Z,48.00
2019-02-28T18:59:49.547Z,48.10
2019-02-28T19:02:19.939Z,48.00
2019-02-28T19:04:50.501Z,48.20
2019-02-28T19:08:11.433Z,48.30
2019-02-28T19:11:32.635Z,48.40
2019-02-28T19:14:26.825Z,48.30
2019-02-28T19:17:01.159Z,48.40
2019-02-28T19:20:14.412Z,48.50
2019-02-28T19:23:42.989Z,48.60
2019-02-28T19:27:03.323Z,48.70
2019-02-28T19:30:45.076Z,48.70
2019-02-28T19:33:50.819Z,49.50
2019-02-28T19:36:24.801Z,49.00
2019-02-28T19:38:55.310Z,49.00
2019-02-28T19:41:26.230Z,49.20
2019-02-28T19:43:56.679Z,49.30
2019-02-28T19:46:27.177Z,49.40
2019-02-28T19:48:57.957Z,49.40
2019-02-28T19:51:32.191Z,49.60
2019-02-28T19:54:02.726Z,49.60
2019-02-28T19:56:33.565Z,49.80
2019-02-28T19:59:26.047Z,49.90
2019-02-28T20:02:00.336Z,50.10
2019-02-28T20:04:33.623Z,50.00
2019-02-28T20:07:04.163Z,50.10
2019-02-28T20:09:35.103Z,50.30
2019-02-28T20:12:05.804Z,50.40
2019-02-28T20:14:55.567Z,50.50
2019-02-28T20:17:24.641Z,50.50
2019-02-28T20:19:59.900Z,50.50
2019-02-28T20:22:30.494Z,50.70
2019-02-28T20:25:04.471Z,50.80
2019-02-28T20:27:38.134Z,50.90
2019-02-28T20:30:11.713Z,51.00
2019-02-28T20:32:42.921Z,51.10
2019-02-28T20:35:13.712Z,51.20
2019-02-28T20:37:44.153Z,51.40
2019-02-28T20:40:15.749Z,51.40
2019-02-28T20:42:46.126Z,51.40
2019-02-28T20:45:16.637Z,51.50
2019-02-28T20:47:47.395Z,51.60
2019-02-28T20:50:23.431Z,51.70
2019-02-28T20:52:56.160Z,52.40
2019-02-28T20:55:26.293Z,51.90
2019-02-28T20:57:57.090Z,52.10
2019-02-28T21:00:28.037Z,52.20
2019-02-28T21:02:59.152Z,52.50
2019-02-28T21:05:29.633Z,52.70
2019-02-28T21:08:00.413Z,52.80
2019-02-28T21:10:31.319Z,53.00
2019-02-28T21:13:04.143Z,53.20
2019-02-28T21:15:34.527Z,53.20
2019-02-28T21:18:05.102Z,53.40
2019-02-28T21:20:35.831Z,53.40
2019-02-28T21:23:08.455Z,53.60
2019-02-28T21:25:39.402Z,53.70
2019-02-28T21:28:10.267Z,53.70
2019-02-28T21:30:40.854Z,53.80
2019-02-28T21:33:11.234Z,53.80
2019-02-28T21:35:42.511Z,53.90
2019-02-28T21:38:12.923Z,53.90
2019-02-28T21:40:43.426Z,53.90
2019-02-28T21:43:13.863Z,53.90
2019-02-28T21:45:46.781Z,53.90
2019-02-28T21:48:17.470Z,54.00
2019-02-28T21:50:48.140Z,53.90
2019-02-28T21:53:18.734Z,53.80
2019-02-28T21:55:58.152Z,53.80
2019-02-28T21:58:28.680Z,54.10
2019-02-28T22:00:59.215Z,53.60
2019-02-28T22:03:30.010Z,53.30
2019-02-28T22:06:00.418Z,53.20
2019-02-28T22:08:30.834Z,53.20
2019-02-28T22:11:01.188Z,53.20
2019-02-28T22:13:31.930Z,53.10
2019-02-28T22:16:02.573Z,53.10
2019-02-28T22:18:32.989Z,53.10
2019-02-28T22:21:03.373Z,53.20
2019-02-28T22:23:34.073Z,53.20
2019-02-28T22:26:05.767Z,53.10
2019-02-28T22:28:36.508Z,53.10
2019-02-28T22:31:29.271Z,53.10
2019-02-28T22:34:04.711Z,53.10
2019-02-28T22:36:38.771Z,53.10
2019-02-28T22:39:10.088Z,53.10
2019-02-28T22:41:40.608Z,53.10
2019-02-28T22:44:10.953Z,53.10
2019-02-28T22:46:41.346Z,53.20
2019-02-28T22:49:12.055Z,53.30
2019-02-28T22:51:42.415Z,53.40
2019-02-28T22:54:12.956Z,53.50
2019-02-28T22:56:43.347Z,53.60
2019-02-28T22:59:13.729Z,53.70
2019-02-28T23:01:45.221Z,53.80
2019-02-28T23:04:15.900Z,53.80
2019-02-28T23:06:46.409Z,54.00
2019-02-28T23:09:16.842Z,54.00
2019-02-28T23:11:47.653Z,54.00
2019-02-28T23:14:18.094Z,54.00
2019-02-28T23:16:48.505Z,54.20
2019-02-28T23:19:19.233Z,54.40
2019-02-28T23:21:49.634Z,54.60
2019-02-28T23:24:20.333Z,54.80
2019-02-28T23:27:22.263Z,55.00
2019-02-28T23:30:21.241Z,55.50
2019-02-28T23:33:00.159Z,55.80
2019-02-28T23:35:40.921Z,56.30
2019-02-28T23:38:11.788Z,56.40
2019-02-28T23:40:42.789Z,57.10
2019-02-28T23:43:15.286Z,57.60
2019-02-28T23:45:48.813Z,58.40
2019-02-28T23:48:19.160Z,58.80
2019-02-28T23:50:49.899Z,59.40
2019-02-28T23:53:22.290Z,59.80
2019-02-28T23:55:52.324Z,60.30
2019-02-28T23:58:26.023Z,60.70
